This is the latest recevied weather packets stored in our database for station/object DG2YCM-10. If no packets are shown the sender has not sent any weather packets the latest 10 day(s).
| Time | Temp. | Humidity | Pressure | Rain* | Wind** | Luminosity | Snow |
|---|---|---|---|---|---|---|---|
| 1777570917 | 18.33° C | 23% | 1017.3 hPa | - | - | - | - |
| 1777567377 | 19.44° C | 20% | 1017.1 hPa | - | - | - | - |
| 1777563836 | 20.56° C | 18% | 1017.5 hPa | - | - | - | - |
| 1777560296 | 21.67° C | 18% | 1017.5 hPa | - | - | - | - |
| 1777556756 | 21.67° C | 20% | 1018 hPa | - | - | - | - |
| 1777553216 | 20.56° C | 20% | 1018.4 hPa | - | - | - | - |
| 1777549676 | 21.11° C | 20% | 1018.7 hPa | - | - | - | - |
| 1777546136 | 18.89° C | 22% | 1018.9 hPa | - | - | - | - |
| 1777542596 | 17.78° C | 27% | 1019.3 hPa | - | - | - | - |
| 1777539055 | 16.11° C | 30% | 1019.6 hPa | - | - | - | - |
| 1777535515 | 14.44° C | 31% | 1019.5 hPa | - | - | - | - |
| 1777531975 | 11.67° C | 35% | 1019.2 hPa | - | - | - | - |
| 1777528435 | 10° C | 37% | 1019 hPa | - | - | - | - |
| 1777524895 | 8.89° C | 40% | 1019 hPa | - | - | - | - |
| 1777521354 | 8.89° C | 40% | 1018.7 hPa | - | - | - | - |
| 1777517814 | 9.44° C | 38% | 1018.9 hPa | - | - | - | - |
| 1777514274 | 10° C | 38% | 1018.5 hPa | - | - | - | - |
| 1777510734 | 10.56° C | 38% | 1018.4 hPa | - | - | - | - |
| 1777507194 | 11.67° C | 36% | 1018.2 hPa | - | - | - | - |
| 1777503654 | 12.22° C | 35% | 1017.9 hPa | - | - | - | - |
| 1777500114 | 13.33° C | 36% | 1017.5 hPa | - | - | - | - |
| 1777496573 | 14.44° C | 35% | 1017 hPa | - | - | - | - |
| 1777493033 | 15.56° C | 30% | 1016.6 hPa | - | - | - | - |
| 1777489493 | 16.67° C | 29% | 1015.8 hPa | - | - | - | - |
| 1777485953 | 18.33° C | 25% | 1015.4 hPa | - | - | - | - |
* Rain since midnight (hover to see other rain measurements)
** Current wind speed in m/s (hover to see current wind gust speed)